Terminal Aerodrome Forecast
Issued by NWS

Home | Current Version | Previous Version | Text Only | Print | Product List | Glossary On
Versions: 1 2 3 4 5 6 7 8 9 10 11 12 13 14 15 16 17
334
FTUS43 KGRB 011139
TAFATW
TAF
KATW 011139Z 0112/0212 05009KT P6SM SCT008 OVC014
      TEMPO 0112/0116 -SHRA BKN008
     FM011600 05007KT P6SM SCT012 OVC035
      TEMPO 0116/0120 -SHRA BKN012
     FM012000 03005KT P6SM BKN012 OVC030
     FM020300 01005KT P6SM OVC004
     FM020900 35005KT P6SM OVC007
     FM021100 35006KT P6SM OVC013=

USA.gov is the U.S. government's official web portal to all federal, state and local government web resources and services.